sensor_id;sensor_type;location;lat;lon;timestamp;P1;durP1;ratioP1;P2;durP2;ratioP2
45318;SDS011;31057;48.498;32.260;2023-04-12T00:01:00;27.65;;;18.52;;
45318;SDS011;31057;48.498;32.260;2023-04-12T00:03:03;24.55;;;18.77;;
45318;SDS011;31057;48.498;32.260;2023-04-12T00:05:06;26.30;;;17.85;;
45318;SDS011;31057;48.498;32.260;2023-04-12T00:07:10;29.15;;;20.48;;
45318;SDS011;31057;48.498;32.260;2023-04-12T00:09:12;25.40;;;20.08;;
45318;SDS011;31057;48.498;32.260;2023-04-12T00:11:16;24.42;;;20.00;;
45318;SDS011;31057;48.498;32.260;2023-04-12T00:13:18;30.73;;;21.63;;
45318;SDS011;31057;48.498;32.260;2023-04-12T00:15:20;26.52;;;20.17;;
45318;SDS011;31057;48.498;32.260;2023-04-12T00:17:22;25.90;;;20.65;;
45318;SDS011;31057;48.498;32.260;2023-04-12T00:21:28;27.27;;;19.65;;
45318;SDS011;31057;48.498;32.260;2023-04-12T00:23:30;27.60;;;20.85;;
45318;SDS011;31057;48.498;32.260;2023-04-12T00:25:34;27.83;;;19.83;;
45318;SDS011;31057;48.498;32.260;2023-04-12T00:27:38;26.20;;;21.23;;
45318;SDS011;31057;48.498;32.260;2023-04-12T00:29:40;31.70;;;21.92;;
45318;SDS011;31057;48.498;32.260;2023-04-12T00:31:42;31.40;;;21.77;;
45318;SDS011;31057;48.498;32.260;2023-04-12T00:33:44;31.23;;;21.38;;
45318;SDS011;31057;48.498;32.260;2023-04-12T00:35:46;30.80;;;22.10;;
45318;SDS011;31057;48.498;32.260;2023-04-12T00:37:49;34.45;;;23.08;;
45318;SDS011;31057;48.498;32.260;2023-04-12T00:39:51;28.95;;;23.23;;
45318;SDS011;31057;48.498;32.260;2023-04-12T00:41:53;30.85;;;24.10;;
45318;SDS011;31057;48.498;32.260;2023-04-12T00:43:57;28.52;;;23.30;;
45318;SDS011;31057;48.498;32.260;2023-04-12T00:46:00;33.80;;;24.00;;
45318;SDS011;31057;48.498;32.260;2023-04-12T00:48:04;34.22;;;24.23;;
45318;SDS011;31057;48.498;32.260;2023-04-12T00:50:07;32.40;;;23.33;;
45318;SDS011;31057;48.498;32.260;2023-04-12T00:52:10;33.50;;;24.45;;
45318;SDS011;31057;48.498;32.260;2023-04-12T00:54:15;33.30;;;24.20;;
45318;SDS011;31057;48.498;32.260;2023-04-12T00:56:18;29.02;;;22.25;;
45318;SDS011;31057;48.498;32.260;2023-04-12T00:58:23;28.65;;;21.38;;
45318;SDS011;31057;48.498;32.260;2023-04-12T01:00:25;32.05;;;23.67;;
45318;SDS011;31057;48.498;32.260;2023-04-12T01:02:28;30.83;;;23.40;;
45318;SDS011;31057;48.498;32.260;2023-04-12T01:04:31;33.95;;;23.33;;
45318;SDS011;31057;48.498;32.260;2023-04-12T01:09:51;33.65;;;23.83;;
45318;SDS011;31057;48.498;32.260;2023-04-12T01:14:08;35.17;;;24.08;;
45318;SDS011;31057;48.498;32.260;2023-04-12T01:18:29;27.52;;;20.60;;
45318;SDS011;31057;48.498;32.260;2023-04-12T01:20:41;34.28;;;23.23;;
45318;SDS011;31057;48.498;32.260;2023-04-12T01:23:12;30.80;;;23.83;;
45318;SDS011;31057;48.498;32.260;2023-04-12T01:29:43;27.75;;;21.58;;
45318;SDS011;31057;48.498;32.260;2023-04-12T01:31:52;31.13;;;24.30;;
45318;SDS011;31057;48.498;32.260;2023-04-12T01:33:58;32.83;;;24.80;;
45318;SDS011;31057;48.498;32.260;2023-04-12T01:36:02;27.23;;;22.20;;
45318;SDS011;31057;48.498;32.260;2023-04-12T01:38:11;35.45;;;27.50;;
45318;SDS011;31057;48.498;32.260;2023-04-12T01:42:21;35.20;;;25.65;;
45318;SDS011;31057;48.498;32.260;2023-04-12T01:44:23;35.75;;;28.63;;
45318;SDS011;31057;48.498;32.260;2023-04-12T01:46:25;37.28;;;28.42;;
45318;SDS011;31057;48.498;32.260;2023-04-12T01:48:27;43.83;;;32.10;;
45318;SDS011;31057;48.498;32.260;2023-04-12T01:52:53;40.97;;;30.88;;
45318;SDS011;31057;48.498;32.260;2023-04-12T01:55:06;46.92;;;30.77;;
45318;SDS011;31057;48.498;32.260;2023-04-12T01:57:10;38.58;;;28.25;;
45318;SDS011;31057;48.498;32.260;2023-04-12T01:59:13;49.40;;;31.85;;
45318;SDS011;31057;48.498;32.260;2023-04-12T02:01:16;47.60;;;34.20;;
45318;SDS011;31057;48.498;32.260;2023-04-12T02:03:19;50.85;;;33.47;;
45318;SDS011;31057;48.498;32.260;2023-04-12T02:05:23;52.38;;;35.60;;
45318;SDS011;31057;48.498;32.260;2023-04-12T02:07:26;46.03;;;33.53;;
45318;SDS011;31057;48.498;32.260;2023-04-12T02:09:28;54.03;;;37.80;;
45318;SDS011;31057;48.498;32.260;2023-04-12T02:11:31;59.97;;;37.85;;
45318;SDS011;31057;48.498;32.260;2023-04-12T02:13:33;54.20;;;36.90;;
45318;SDS011;31057;48.498;32.260;2023-04-12T02:15:35;57.78;;;38.53;;
45318;SDS011;31057;48.498;32.260;2023-04-12T02:17:37;59.72;;;38.65;;
45318;SDS011;31057;48.498;32.260;2023-04-12T02:19:41;60.38;;;40.17;;
45318;SDS011;31057;48.498;32.260;2023-04-12T02:21:43;62.67;;;40.85;;
45318;SDS011;31057;48.498;32.260;2023-04-12T02:23:45;60.13;;;40.88;;
45318;SDS011;31057;48.498;32.260;2023-04-12T02:25:47;54.53;;;38.65;;
45318;SDS011;31057;48.498;32.260;2023-04-12T02:27:49;67.18;;;38.85;;
45318;SDS011;31057;48.498;32.260;2023-04-12T02:29:51;62.95;;;39.85;;
45318;SDS011;31057;48.498;32.260;2023-04-12T02:31:53;54.08;;;38.40;;
45318;SDS011;31057;48.498;32.260;2023-04-12T02:33:55;52.33;;;35.90;;
45318;SDS011;31057;48.498;32.260;2023-04-12T02:35:58;55.30;;;35.10;;
45318;SDS011;31057;48.498;32.260;2023-04-12T02:38:02;54.42;;;35.50;;
45318;SDS011;31057;48.498;32.260;2023-04-12T02:40:08;54.20;;;35.42;;
45318;SDS011;31057;48.498;32.260;2023-04-12T02:42:11;48.42;;;36.05;;
45318;SDS011;31057;48.498;32.260;2023-04-12T02:44:13;55.53;;;35.63;;
45318;SDS011;31057;48.498;32.260;2023-04-12T02:46:21;54.38;;;36.42;;
45318;SDS011;31057;48.498;32.260;2023-04-12T02:48:24;53.80;;;37.05;;
45318;SDS011;31057;48.498;32.260;2023-04-12T02:50:27;53.47;;;36.20;;
45318;SDS011;31057;48.498;32.260;2023-04-12T02:52:29;62.65;;;37.05;;
45318;SDS011;31057;48.498;32.260;2023-04-12T02:54:33;50.67;;;34.85;;
45318;SDS011;31057;48.498;32.260;2023-04-12T02:56:35;52.35;;;35.70;;
45318;SDS011;31057;48.498;32.260;2023-04-12T03:00:39;56.13;;;35.30;;
45318;SDS011;31057;48.498;32.260;2023-04-12T03:02:42;58.88;;;37.83;;
45318;SDS011;31057;48.498;32.260;2023-04-12T03:04:45;55.58;;;36.30;;
45318;SDS011;31057;48.498;32.260;2023-04-12T03:06:47;54.60;;;36.50;;
45318;SDS011;31057;48.498;32.260;2023-04-12T03:08:58;53.50;;;36.17;;
45318;SDS011;31057;48.498;32.260;2023-04-12T03:11:00;59.45;;;35.17;;
45318;SDS011;31057;48.498;32.260;2023-04-12T03:13:02;51.20;;;35.03;;
45318;SDS011;31057;48.498;32.260;2023-04-12T03:15:05;51.13;;;34.33;;
45318;SDS011;31057;48.498;32.260;2023-04-12T03:17:08;50.85;;;33.42;;
45318;SDS011;31057;48.498;32.260;2023-04-12T03:19:10;46.65;;;33.35;;
45318;SDS011;31057;48.498;32.260;2023-04-12T03:23:13;39.93;;;31.83;;
45318;SDS011;31057;48.498;32.260;2023-04-12T03:25:15;46.67;;;33.05;;
45318;SDS011;31057;48.498;32.260;2023-04-12T03:27:20;45.08;;;30.70;;
45318;SDS011;31057;48.498;32.260;2023-04-12T03:29:22;44.05;;;31.48;;
45318;SDS011;31057;48.498;32.260;2023-04-12T03:31:24;46.92;;;32.47;;
45318;SDS011;31057;48.498;32.260;2023-04-12T03:33:27;44.72;;;30.23;;
45318;SDS011;31057;48.498;32.260;2023-04-12T03:35:29;42.97;;;30.15;;
45318;SDS011;31057;48.498;32.260;2023-04-12T03:39:33;49.20;;;31.48;;
45318;SDS011;31057;48.498;32.260;2023-04-12T03:43:37;41.80;;;28.83;;
45318;SDS011;31057;48.498;32.260;2023-04-12T03:47:41;36.15;;;24.13;;
45318;SDS011;31057;48.498;32.260;2023-04-12T03:49:43;40.70;;;29.88;;
45318;SDS011;31057;48.498;32.260;2023-04-12T03:51:57;36.20;;;25.00;;
45318;SDS011;31057;48.498;32.260;2023-04-12T03:53:59;41.65;;;28.83;;
45318;SDS011;31057;48.498;32.260;2023-04-12T03:56:03;32.80;;;26.92;;
45318;SDS011;31057;48.498;32.260;2023-04-12T03:58:05;38.47;;;28.95;;
45318;SDS011;31057;48.498;32.260;2023-04-12T04:00:07;37.30;;;28.00;;
45318;SDS011;31057;48.498;32.260;2023-04-12T04:02:10;40.67;;;28.13;;
45318;SDS011;31057;48.498;32.260;2023-04-12T04:06:14;37.40;;;27.90;;
45318;SDS011;31057;48.498;32.260;2023-04-12T04:08:17;35.80;;;26.92;;
45318;SDS011;31057;48.498;32.260;2023-04-12T04:10:19;35.25;;;26.50;;
45318;SDS011;31057;48.498;32.260;2023-04-12T04:12:22;35.45;;;25.40;;
45318;SDS011;31057;48.498;32.260;2023-04-12T04:14:24;31.48;;;24.38;;
45318;SDS011;31057;48.498;32.260;2023-04-12T04:16:27;31.83;;;23.67;;
45318;SDS011;31057;48.498;32.260;2023-04-12T04:18:31;29.92;;;22.65;;
45318;SDS011;31057;48.498;32.260;2023-04-12T04:20:34;30.17;;;23.27;;
45318;SDS011;31057;48.498;32.260;2023-04-12T04:22:36;27.25;;;21.92;;
45318;SDS011;31057;48.498;32.260;2023-04-12T04:24:38;25.90;;;21.95;;
45318;SDS011;31057;48.498;32.260;2023-04-12T04:26:40;27.55;;;22.77;;
45318;SDS011;31057;48.498;32.260;2023-04-12T04:28:43;28.60;;;22.10;;
45318;SDS011;31057;48.498;32.260;2023-04-12T04:30:47;25.73;;;21.35;;
45318;SDS011;31057;48.498;32.260;2023-04-12T04:32:49;26.52;;;20.80;;
45318;SDS011;31057;48.498;32.260;2023-04-12T04:36:52;26.53;;;20.37;;
45318;SDS011;31057;48.498;32.260;2023-04-12T04:38:55;25.83;;;22.17;;
45318;SDS011;31057;48.498;32.260;2023-04-12T04:40:57;24.23;;;19.98;;
45318;SDS011;31057;48.498;32.260;2023-04-12T04:43:03;22.50;;;19.90;;
45318;SDS011;31057;48.498;32.260;2023-04-12T04:45:08;27.30;;;20.70;;
45318;SDS011;31057;48.498;32.260;2023-04-12T04:47:14;25.90;;;19.92;;
45318;SDS011;31057;48.498;32.260;2023-04-12T04:49:16;25.02;;;20.10;;
45318;SDS011;31057;48.498;32.260;2023-04-12T04:51:18;21.05;;;18.25;;
45318;SDS011;31057;48.498;32.260;2023-04-12T04:53:20;24.45;;;18.73;;
45318;SDS011;31057;48.498;32.260;2023-04-12T04:55:23;20.75;;;17.45;;
45318;SDS011;31057;48.498;32.260;2023-04-12T04:59:27;25.90;;;19.08;;
45318;SDS011;31057;48.498;32.260;2023-04-12T05:01:29;20.95;;;18.60;;
45318;SDS011;31057;48.498;32.260;2023-04-12T05:03:32;22.73;;;20.25;;
45318;SDS011;31057;48.498;32.260;2023-04-12T05:05:34;22.23;;;19.60;;
45318;SDS011;31057;48.498;32.260;2023-04-12T05:07:36;24.42;;;20.42;;
45318;SDS011;31057;48.498;32.260;2023-04-12T05:09:38;30.80;;;22.58;;
45318;SDS011;31057;48.498;32.260;2023-04-12T05:11:40;27.27;;;22.70;;
45318;SDS011;31057;48.498;32.260;2023-04-12T05:13:42;33.47;;;23.73;;
45318;SDS011;31057;48.498;32.260;2023-04-12T05:15:44;29.20;;;22.73;;
45318;SDS011;31057;48.498;32.260;2023-04-12T05:17:46;28.42;;;23.45;;
45318;SDS011;31057;48.498;32.260;2023-04-12T05:19:48;38.08;;;28.15;;
45318;SDS011;31057;48.498;32.260;2023-04-12T05:21:50;35.17;;;26.77;;
45318;SDS011;31057;48.498;32.260;2023-04-12T05:23:52;36.53;;;27.63;;
45318;SDS011;31057;48.498;32.260;2023-04-12T05:25:54;34.25;;;28.85;;
45318;SDS011;31057;48.498;32.260;2023-04-12T05:27:56;37.63;;;28.85;;
45318;SDS011;31057;48.498;32.260;2023-04-12T05:29:58;37.90;;;30.10;;
45318;SDS011;31057;48.498;32.260;2023-04-12T05:32:00;42.00;;;29.00;;
45318;SDS011;31057;48.498;32.260;2023-04-12T05:34:02;38.38;;;27.48;;
45318;SDS011;31057;48.498;32.260;2023-04-12T05:36:04;41.70;;;30.33;;
45318;SDS011;31057;48.498;32.260;2023-04-12T05:38:07;38.30;;;28.15;;
45318;SDS011;31057;48.498;32.260;2023-04-12T05:40:09;37.92;;;30.05;;
45318;SDS011;31057;48.498;32.260;2023-04-12T05:42:11;39.83;;;28.42;;
45318;SDS011;31057;48.498;32.260;2023-04-12T05:44:13;42.05;;;29.17;;
45318;SDS011;31057;48.498;32.260;2023-04-12T05:46:15;35.13;;;27.33;;
45318;SDS011;31057;48.498;32.260;2023-04-12T05:50:19;33.08;;;24.70;;
45318;SDS011;31057;48.498;32.260;2023-04-12T05:52:22;40.00;;;25.60;;
45318;SDS011;31057;48.498;32.260;2023-04-12T05:54:23;35.80;;;25.98;;
45318;SDS011;31057;48.498;32.260;2023-04-12T05:56:26;38.60;;;27.30;;
45318;SDS011;31057;48.498;32.260;2023-04-12T05:58:28;31.55;;;24.80;;
45318;SDS011;31057;48.498;32.260;2023-04-12T06:00:29;34.40;;;26.20;;
45318;SDS011;31057;48.498;32.260;2023-04-12T06:02:32;35.08;;;25.45;;
45318;SDS011;31057;48.498;32.260;2023-04-12T06:04:35;29.70;;;24.05;;
45318;SDS011;31057;48.498;32.260;2023-04-12T06:06:51;35.22;;;27.90;;
45318;SDS011;31057;48.498;32.260;2023-04-12T06:08:54;41.38;;;27.52;;
45318;SDS011;31057;48.498;32.260;2023-04-12T06:11:00;33.00;;;25.00;;
45318;SDS011;31057;48.498;32.260;2023-04-12T06:13:02;33.92;;;24.67;;
45318;SDS011;31057;48.498;32.260;2023-04-12T06:15:04;30.42;;;23.13;;
45318;SDS011;31057;48.498;32.260;2023-04-12T06:17:06;30.60;;;24.02;;
45318;SDS011;31057;48.498;32.260;2023-04-12T06:19:08;32.40;;;24.70;;
45318;SDS011;31057;48.498;32.260;2023-04-12T06:21:11;42.70;;;28.23;;
45318;SDS011;31057;48.498;32.260;2023-04-12T06:23:13;42.42;;;28.52;;
45318;SDS011;31057;48.498;32.260;2023-04-12T06:27:17;38.00;;;27.65;;
45318;SDS011;31057;48.498;32.260;2023-04-12T06:29:20;37.50;;;28.40;;
45318;SDS011;31057;48.498;32.260;2023-04-12T06:31:22;30.58;;;25.40;;
45318;SDS011;31057;48.498;32.260;2023-04-12T06:33:24;31.48;;;22.63;;
45318;SDS011;31057;48.498;32.260;2023-04-12T06:35:27;33.13;;;23.80;;
45318;SDS011;31057;48.498;32.260;2023-04-12T06:37:29;32.72;;;25.13;;
45318;SDS011;31057;48.498;32.260;2023-04-12T06:39:31;36.22;;;25.67;;
45318;SDS011;31057;48.498;32.260;2023-04-12T06:43:35;36.83;;;26.45;;
45318;SDS011;31057;48.498;32.260;2023-04-12T06:45:37;40.50;;;27.55;;
45318;SDS011;31057;48.498;32.260;2023-04-12T06:47:39;40.42;;;28.55;;
45318;SDS011;31057;48.498;32.260;2023-04-12T06:49:41;35.00;;;27.20;;
45318;SDS011;31057;48.498;32.260;2023-04-12T06:51:43;37.70;;;26.50;;
45318;SDS011;31057;48.498;32.260;2023-04-12T06:53:45;37.65;;;27.65;;
45318;SDS011;31057;48.498;32.260;2023-04-12T06:55:47;30.13;;;24.08;;
45318;SDS011;31057;48.498;32.260;2023-04-12T06:57:48;35.33;;;25.63;;
45318;SDS011;31057;48.498;32.260;2023-04-12T06:59:52;34.63;;;25.90;;
45318;SDS011;31057;48.498;32.260;2023-04-12T07:01:54;34.08;;;26.20;;
45318;SDS011;31057;48.498;32.260;2023-04-12T07:03:57;31.58;;;23.70;;
45318;SDS011;31057;48.498;32.260;2023-04-12T07:08:13;23.70;;;18.02;;
45318;SDS011;31057;48.498;32.260;2023-04-12T07:10:15;22.70;;;17.05;;
45318;SDS011;31057;48.498;32.260;2023-04-12T07:12:17;23.98;;;19.15;;
45318;SDS011;31057;48.498;32.260;2023-04-12T07:14:19;25.65;;;20.60;;
45318;SDS011;31057;48.498;32.260;2023-04-12T07:16:21;24.73;;;20.40;;
45318;SDS011;31057;48.498;32.260;2023-04-12T07:18:23;23.88;;;19.88;;
45318;SDS011;31057;48.498;32.260;2023-04-12T07:20:25;25.15;;;21.00;;
45318;SDS011;31057;48.498;32.260;2023-04-12T07:24:29;24.25;;;19.52;;
45318;SDS011;31057;48.498;32.260;2023-04-12T07:28:32;24.23;;;19.23;;
45318;SDS011;31057;48.498;32.260;2023-04-12T07:30:39;21.45;;;16.48;;
45318;SDS011;31057;48.498;32.260;2023-04-12T07:32:41;22.88;;;17.15;;
45318;SDS011;31057;48.498;32.260;2023-04-12T07:36:45;24.23;;;17.37;;
45318;SDS011;31057;48.498;32.260;2023-04-12T07:38:47;22.63;;;18.20;;
45318;SDS011;31057;48.498;32.260;2023-04-12T07:40:49;23.83;;;20.00;;
45318;SDS011;31057;48.498;32.260;2023-04-12T07:42:51;27.92;;;21.95;;
45318;SDS011;31057;48.498;32.260;2023-04-12T07:44:53;29.20;;;20.98;;
45318;SDS011;31057;48.498;32.260;2023-04-12T07:46:55;24.17;;;21.20;;
45318;SDS011;31057;48.498;32.260;2023-04-12T07:48:56;27.08;;;22.48;;
45318;SDS011;31057;48.498;32.260;2023-04-12T07:50:59;30.75;;;23.33;;
45318;SDS011;31057;48.498;32.260;2023-04-12T07:53:19;21.48;;;19.27;;
45318;SDS011;31057;48.498;32.260;2023-04-12T07:55:23;26.23;;;22.45;;
45318;SDS011;31057;48.498;32.260;2023-04-12T07:59:27;26.33;;;21.02;;
45318;SDS011;31057;48.498;32.260;2023-04-12T08:01:29;26.23;;;22.23;;
45318;SDS011;31057;48.498;32.260;2023-04-12T08:05:34;29.55;;;22.65;;
45318;SDS011;31057;48.498;32.260;2023-04-12T08:09:38;35.42;;;23.42;;
45318;SDS011;31057;48.498;32.260;2023-04-12T08:11:39;31.42;;;23.38;;
45318;SDS011;31057;48.498;32.260;2023-04-12T08:13:41;31.33;;;24.63;;
45318;SDS011;31057;48.498;32.260;2023-04-12T08:15:43;29.00;;;23.88;;
45318;SDS011;31057;48.498;32.260;2023-04-12T08:17:47;27.27;;;22.48;;
45318;SDS011;31057;48.498;32.260;2023-04-12T08:21:51;28.40;;;20.98;;
45318;SDS011;31057;48.498;32.260;2023-04-12T08:23:54;25.40;;;20.27;;
45318;SDS011;31057;48.498;32.260;2023-04-12T08:25:57;23.40;;;20.85;;
45318;SDS011;31057;48.498;32.260;2023-04-12T08:28:08;26.65;;;19.85;;
45318;SDS011;31057;48.498;32.260;2023-04-12T08:32:12;24.92;;;18.75;;
45318;SDS011;31057;48.498;32.260;2023-04-12T08:34:14;27.52;;;19.00;;
45318;SDS011;31057;48.498;32.260;2023-04-12T08:38:18;21.58;;;18.80;;
45318;SDS011;31057;48.498;32.260;2023-04-12T08:40:31;22.23;;;18.60;;
45318;SDS011;31057;48.498;32.260;2023-04-12T08:42:33;29.65;;;21.00;;
45318;SDS011;31057;48.498;32.260;2023-04-12T08:44:37;26.25;;;20.58;;
45318;SDS011;31057;48.498;32.260;2023-04-12T08:46:40;29.15;;;22.33;;
45318;SDS011;31057;48.498;32.260;2023-04-12T08:48:43;30.30;;;23.13;;
45318;SDS011;31057;48.498;32.260;2023-04-12T08:50:46;27.38;;;21.10;;
45318;SDS011;31057;48.498;32.260;2023-04-12T08:52:50;26.75;;;20.83;;
45318;SDS011;31057;48.498;32.260;2023-04-12T08:54:56;23.10;;;19.30;;
45318;SDS011;31057;48.498;32.260;2023-04-12T08:56:59;26.38;;;20.02;;
45318;SDS011;31057;48.498;32.260;2023-04-12T08:59:02;21.25;;;19.13;;
45318;SDS011;31057;48.498;32.260;2023-04-12T09:01:06;24.58;;;19.33;;
45318;SDS011;31057;48.498;32.260;2023-04-12T09:03:14;25.80;;;20.58;;
45318;SDS011;31057;48.498;32.260;2023-04-12T09:05:16;28.63;;;20.35;;
45318;SDS011;31057;48.498;32.260;2023-04-12T09:07:19;20.00;;;17.90;;
45318;SDS011;31057;48.498;32.260;2023-04-12T09:11:47;21.80;;;18.13;;
45318;SDS011;31057;48.498;32.260;2023-04-12T09:13:49;21.33;;;18.70;;
45318;SDS011;31057;48.498;32.260;2023-04-12T09:15:52;23.00;;;18.95;;
45318;SDS011;31057;48.498;32.260;2023-04-12T09:18:07;24.83;;;19.52;;
45318;SDS011;31057;48.498;32.260;2023-04-12T09:22:18;21.63;;;18.13;;
45318;SDS011;31057;48.498;32.260;2023-04-12T09:24:40;17.95;;;16.05;;
45318;SDS011;31057;48.498;32.260;2023-04-12T09:27:03;22.55;;;17.52;;
45318;SDS011;31057;48.498;32.260;2023-04-12T09:29:06;17.92;;;16.13;;
45318;SDS011;31057;48.498;32.260;2023-04-12T09:31:24;17.33;;;15.50;;
45318;SDS011;31057;48.498;32.260;2023-04-12T09:35:38;16.85;;;15.07;;
45318;SDS011;31057;48.498;32.260;2023-04-12T09:37:41;17.30;;;15.57;;
45318;SDS011;31057;48.498;32.260;2023-04-12T09:41:45;16.75;;;15.00;;
45318;SDS011;31057;48.498;32.260;2023-04-12T09:43:47;16.73;;;15.00;;
45318;SDS011;31057;48.498;32.260;2023-04-12T09:45:50;15.18;;;13.65;;
45318;SDS011;31057;48.498;32.260;2023-04-12T09:47:53;14.85;;;13.35;;
45318;SDS011;31057;48.498;32.260;2023-04-12T09:51:57;15.02;;;12.63;;
45318;SDS011;31057;48.498;32.260;2023-04-12T09:56:03;14.73;;;13.32;;
45318;SDS011;31057;48.498;32.260;2023-04-12T09:58:06;15.07;;;13.57;;
45318;SDS011;31057;48.498;32.260;2023-04-12T10:00:12;15.73;;;14.23;;
45318;SDS011;31057;48.498;32.260;2023-04-12T10:02:18;16.40;;;14.73;;
45318;SDS011;31057;48.498;32.260;2023-04-12T10:04:27;15.80;;;14.18;;
45318;SDS011;31057;48.498;32.260;2023-04-12T10:06:32;17.52;;;15.73;;
45318;SDS011;31057;48.498;32.260;2023-04-12T10:08:35;15.68;;;14.02;;
45318;SDS011;31057;48.498;32.260;2023-04-12T10:10:38;18.02;;;15.45;;
45318;SDS011;31057;48.498;32.260;2023-04-12T10:12:41;18.25;;;16.35;;
45318;SDS011;31057;48.498;32.260;2023-04-12T10:14:44;19.23;;;16.63;;
45318;SDS011;31057;48.498;32.260;2023-04-12T10:16:47;20.20;;;17.60;;
45318;SDS011;31057;48.498;32.260;2023-04-12T10:20:52;26.58;;;19.17;;
45318;SDS011;31057;48.498;32.260;2023-04-12T10:22:55;18.63;;;16.45;;
45318;SDS011;31057;48.498;32.260;2023-04-12T10:25:00;19.27;;;17.40;;
45318;SDS011;31057;48.498;32.260;2023-04-12T10:27:02;20.17;;;18.20;;
45318;SDS011;31057;48.498;32.260;2023-04-12T10:29:24;17.45;;;14.77;;
45318;SDS011;31057;48.498;32.260;2023-04-12T10:31:28;16.10;;;14.45;;
45318;SDS011;31057;48.498;32.260;2023-04-12T10:33:31;17.98;;;15.90;;
45318;SDS011;31057;48.498;32.260;2023-04-12T10:38:14;18.77;;;16.70;;
45318;SDS011;31057;48.498;32.260;2023-04-12T10:40:17;16.25;;;14.65;;
45318;SDS011;31057;48.498;32.260;2023-04-12T10:44:28;29.35;;;23.98;;
45318;SDS011;31057;48.498;32.260;2023-04-12T10:48:52;15.18;;;12.55;;
45318;SDS011;31057;48.498;32.260;2023-04-12T10:51:13;17.73;;;15.90;;
45318;SDS011;31057;48.498;32.260;2023-04-12T10:53:27;15.90;;;14.25;;
45318;SDS011;31057;48.498;32.260;2023-04-12T10:55:29;19.98;;;16.20;;
45318;SDS011;31057;48.498;32.260;2023-04-12T10:57:40;16.25;;;14.52;;
45318;SDS011;31057;48.498;32.260;2023-04-12T10:59:50;15.05;;;13.60;;
45318;SDS011;31057;48.498;32.260;2023-04-12T11:04:17;15.52;;;13.25;;
45318;SDS011;31057;48.498;32.260;2023-04-12T11:06:22;14.73;;;13.25;;
45318;SDS011;31057;48.498;32.260;2023-04-12T11:08:53;13.50;;;11.02;;
45318;SDS011;31057;48.498;32.260;2023-04-12T11:11:00;12.82;;;11.52;;
45318;SDS011;31057;48.498;32.260;2023-04-12T11:13:06;15.57;;;12.57;;
45318;SDS011;31057;48.498;32.260;2023-04-12T11:15:10;14.18;;;12.70;;
45318;SDS011;31057;48.498;32.260;2023-04-12T11:19:16;18.90;;;14.75;;
45318;SDS011;31057;48.498;32.260;2023-04-12T11:23:20;16.33;;;14.70;;
45318;SDS011;31057;48.498;32.260;2023-04-12T11:25:22;15.45;;;13.85;;
45318;SDS011;31057;48.498;32.260;2023-04-12T11:27:25;19.10;;;16.75;;
45318;SDS011;31057;48.498;32.260;2023-04-12T11:29:28;18.30;;;16.25;;
45318;SDS011;31057;48.498;32.260;2023-04-12T11:31:32;18.20;;;15.70;;
45318;SDS011;31057;48.498;32.260;2023-04-12T11:35:42;23.85;;;18.00;;
45318;SDS011;31057;48.498;32.260;2023-04-12T11:37:44;17.58;;;15.65;;
45318;SDS011;31057;48.498;32.260;2023-04-12T11:39:46;18.98;;;16.88;;
45318;SDS011;31057;48.498;32.260;2023-04-12T11:41:50;18.48;;;16.60;;
45318;SDS011;31057;48.498;32.260;2023-04-12T11:43:53;16.05;;;14.10;;
45318;SDS011;31057;48.498;32.260;2023-04-12T11:45:56;17.10;;;15.50;;
45318;SDS011;31057;48.498;32.260;2023-04-12T11:47:59;17.92;;;16.02;;
45318;SDS011;31057;48.498;32.260;2023-04-12T11:50:01;22.42;;;15.68;;
45318;SDS011;31057;48.498;32.260;2023-04-12T11:54:06;26.40;;;19.58;;
45318;SDS011;31057;48.498;32.260;2023-04-12T11:56:09;21.35;;;19.00;;
45318;SDS011;31057;48.498;32.260;2023-04-12T11:58:11;23.15;;;19.48;;
45318;SDS011;31057;48.498;32.260;2023-04-12T12:00:14;23.40;;;20.58;;
45318;SDS011;31057;48.498;32.260;2023-04-12T12:02:16;21.65;;;19.45;;
45318;SDS011;31057;48.498;32.260;2023-04-12T12:04:24;21.60;;;19.30;;
45318;SDS011;31057;48.498;32.260;2023-04-12T12:06:28;24.33;;;21.83;;
45318;SDS011;31057;48.498;32.260;2023-04-12T12:08:31;25.65;;;20.38;;
45318;SDS011;31057;48.498;32.260;2023-04-12T12:10:34;26.83;;;24.20;;
45318;SDS011;31057;48.498;32.260;2023-04-12T12:12:55;23.60;;;21.20;;
45318;SDS011;31057;48.498;32.260;2023-04-12T12:14:58;23.33;;;18.65;;
45318;SDS011;31057;48.498;32.260;2023-04-12T12:17:01;21.17;;;18.98;;
45318;SDS011;31057;48.498;32.260;2023-04-12T12:19:09;17.85;;;15.88;;
45318;SDS011;31057;48.498;32.260;2023-04-12T12:21:12;18.00;;;16.13;;
45318;SDS011;31057;48.498;32.260;2023-04-12T12:23:30;18.35;;;15.95;;
45318;SDS011;31057;48.498;32.260;2023-04-12T12:25:33;16.77;;;14.57;;
45318;SDS011;31057;48.498;32.260;2023-04-12T12:27:37;18.30;;;15.13;;
45318;SDS011;31057;48.498;32.260;2023-04-12T12:29:41;19.05;;;17.08;;
45318;SDS011;31057;48.498;32.260;2023-04-12T12:31:45;21.45;;;16.67;;
45318;SDS011;31057;48.498;32.260;2023-04-12T12:33:54;18.95;;;17.02;;
45318;SDS011;31057;48.498;32.260;2023-04-12T12:36:00;19.45;;;17.35;;
45318;SDS011;31057;48.498;32.260;2023-04-12T12:40:08;18.88;;;16.45;;
45318;SDS011;31057;48.498;32.260;2023-04-12T12:42:14;19.40;;;17.50;;
45318;SDS011;31057;48.498;32.260;2023-04-12T12:44:17;21.70;;;18.95;;
45318;SDS011;31057;48.498;32.260;2023-04-12T12:46:19;21.08;;;18.55;;
45318;SDS011;31057;48.498;32.260;2023-04-12T12:48:22;18.75;;;16.77;;
45318;SDS011;31057;48.498;32.260;2023-04-12T12:50:25;20.73;;;17.77;;
45318;SDS011;31057;48.498;32.260;2023-04-12T12:52:28;19.15;;;16.60;;
45318;SDS011;31057;48.498;32.260;2023-04-12T12:54:30;16.50;;;13.95;;
45318;SDS011;31057;48.498;32.260;2023-04-12T12:56:41;16.27;;;14.07;;
45318;SDS011;31057;48.498;32.260;2023-04-12T12:58:45;16.83;;;15.05;;
45318;SDS011;31057;48.498;32.260;2023-04-12T13:00:47;16.40;;;13.68;;
45318;SDS011;31057;48.498;32.260;2023-04-12T13:02:49;16.38;;;14.55;;
45318;SDS011;31057;48.498;32.260;2023-04-12T13:04:52;16.65;;;14.98;;
45318;SDS011;31057;48.498;32.260;2023-04-12T13:08:56;19.00;;;16.25;;
45318;SDS011;31057;48.498;32.260;2023-04-12T13:10:58;15.10;;;13.50;;
45318;SDS011;31057;48.498;32.260;2023-04-12T13:13:01;16.20;;;14.43;;
45318;SDS011;31057;48.498;32.260;2023-04-12T13:15:03;14.20;;;12.70;;
45318;SDS011;31057;48.498;32.260;2023-04-12T13:17:22;14.00;;;11.55;;
45318;SDS011;31057;48.498;32.260;2023-04-12T13:19:24;11.68;;;10.45;;
45318;SDS011;31057;48.498;32.260;2023-04-12T13:21:26;10.05;;;9.05;;
45318;SDS011;31057;48.498;32.260;2023-04-12T13:23:28;10.32;;;8.90;;
45318;SDS011;31057;48.498;32.260;2023-04-12T13:25:30;12.73;;;9.90;;
45318;SDS011;31057;48.498;32.260;2023-04-12T13:27:32;12.73;;;10.82;;
45318;SDS011;31057;48.498;32.260;2023-04-12T13:29:34;9.75;;;7.80;;
45318;SDS011;31057;48.498;32.260;2023-04-12T13:31:37;9.00;;;7.32;;